Time;durP1;ratioP1;P1;durP2;ratioP2;P2;SDS_P1;SDS_P2;PMS_P1;PMS_P2;Temp;Humidity;BMP_temperature;BMP_pressure;BME280_temperature;BME280_humidity;BME280_pressure;Samples;Min_cycle;Max_cycle;Signal;HPM_P1;HPM_P2
2022/11/09 00:02:36;;;;;;;46.88;27.55;;;12.70;99.90;;;;;;5054070;28;20051;-68
2022/11/09 00:05:41;;;;;;;40.20;27.08;;;12.80;99.90;;;;;;5053376;28;20068;-68
2022/11/09 00:08:45;;;;;;;48.92;30.83;;;12.80;99.90;;;;;;5053618;28;20047;-67
2022/11/09 00:11:49;;;;;;;42.92;28.65;;;12.80;99.90;;;;;;5053495;28;20048;-69
2022/11/09 00:14:53;;;;;;;33.85;22.88;;;12.80;99.90;;;;;;5053301;28;20052;-68
2022/11/09 00:18:00;;;;;;;36.47;21.83;;;12.60;99.60;;;;;;5053547;28;20048;-69
2022/11/09 00:21:09;;;;;;;32.85;22.15;;;13.60;99.90;;;;;;5053563;28;20063;-69
2022/11/09 00:24:13;;;;;;;33.38;22.52;;;11.60;99.90;;;;;;5053135;28;20048;-69
2022/11/09 00:27:17;;;;;;;37.38;25.90;;;9.70;99.90;;;;;;5053065;28;20096;-69
2022/11/09 00:30:21;;;;;;;40.90;26.75;;;16.30;99.90;;;;;;5052063;28;20063;-69
2022/11/09 00:33:25;;;;;;;44.83;25.95;;;11.10;99.90;;;;;;5053275;28;20048;-69
2022/11/09 00:36:29;;;;;;;49.20;27.67;;;;;;;;;;5052819;28;20507;-68
2022/11/09 00:39:33;;;;;;;43.53;25.48;;;12.30;99.90;;;;;;5053184;28;20051;-67
2022/11/09 00:42:38;;;;;;;40.67;25.73;;;;;;;;;;5052905;28;20044;-68
2022/11/09 00:45:42;;;;;;;44.08;28.95;;;10.80;99.90;;;;;;5051770;28;20075;-68
2022/11/09 00:48:46;;;;;;;41.47;27.30;;;12.10;99.90;;;;;;5052123;28;20044;-68
2022/11/09 00:51:50;;;;;;;42.58;27.55;;;10.70;99.90;;;;;;5052428;28;20060;-68
2022/11/09 00:54:53;;;;;;;35.90;22.98;;;12.20;99.90;;;;;;5051921;28;20044;-68
2022/11/09 00:57:57;;;;;;;40.30;25.65;;;12.30;99.90;;;;;;5052721;28;20116;-68
2022/11/09 01:01:10;;;;;;;46.40;25.20;;;12.10;99.90;;;;;;5052907;28;20035;-69
2022/11/09 01:04:14;;;;;;;43.08;25.60;;;;;;;;;;5051620;28;20060;-67
2022/11/09 01:07:18;;;;;;;38.70;23.45;;;12.40;99.90;;;;;;5051313;28;20044;-68
2022/11/09 01:10:22;;;;;;;37.70;24.10;;;12.00;99.90;;;;;;5051508;28;20044;-69
2022/11/09 01:13:26;;;;;;;39.13;24.25;;;;;;;;;;5052556;28;20048;-68
2022/11/09 01:16:30;;;;;;;40.00;23.35;;;12.00;99.90;;;;;;5052443;28;20044;-68
2022/11/09 01:19:34;;;;;;;39.33;24.48;;;12.30;99.90;;;;;;5051532;28;20048;-68
2022/11/09 01:22:38;;;;;;;40.15;23.42;;;;;;;;;;5051202;28;20397;-68
2022/11/09 01:25:43;;;;;;;36.88;23.33;;;11.50;99.90;;;;;;5051851;28;20060;-69
2022/11/09 01:28:47;;;;;;;38.28;23.27;;;12.00;99.90;;;;;;5051933;28;20040;-69
2022/11/09 01:31:54;;;;;;;38.97;22.85;;;12.00;99.90;;;;;;5051992;28;20511;-69
2022/11/09 01:34:58;;;;;;;33.13;19.92;;;;;;;;;;5039951;28;20047;-68
2022/11/09 01:38:04;;;;;;;35.58;20.88;;;11.80;99.90;;;;;;5052084;28;20397;-69
2022/11/09 01:41:18;;;;;;;30.13;19.77;;;10.50;99.90;;;;;;5051785;28;20059;-68
2022/11/09 01:44:26;;;;;;;32.60;20.40;;;13.10;99.90;;;;;;5051839;28;20048;-68
2022/11/09 01:47:31;;;;;;;30.52;19.83;;;;;;;;;;5050541;28;20044;-68
2022/11/09 01:50:57;;;;;;;30.65;18.90;;;12.00;99.90;;;;;;5051400;28;20036;-69
2022/11/09 01:54:09;;;;;;;30.75;19.08;;;12.00;99.90;;;;;;5050697;28;20036;-69
2022/11/09 01:57:20;;;;;;;35.90;20.60;;;13.70;99.90;;;;;;5050845;28;20116;-69
2022/11/09 02:00:25;;;;;;;34.97;21.10;;;;;;;;;;5050557;28;20048;-69
2022/11/09 02:03:39;;;;;;;27.55;19.15;;;12.00;99.90;;;;;;5050595;28;20055;-69
2022/11/09 02:06:44;;;;;;;34.28;21.38;;;11.90;99.90;;;;;;5051354;28;20052;-69
2022/11/09 02:10:12;;;;;;;32.72;20.33;;;11.80;99.90;;;;;;5050543;28;20519;-69
2022/11/09 02:13:19;;;;;;;29.60;20.13;;;11.60;99.90;;;;;;5050531;28;20039;-68
2022/11/09 02:16:25;;;;;;;30.73;21.05;;;11.80;99.90;;;;;;5051197;28;20055;-69
2022/11/09 02:19:29;;;;;;;28.80;20.52;;;12.20;99.90;;;;;;5050416;28;20500;-68
2022/11/09 02:22:33;;;;;;;30.20;20.40;;;;;;;;;;5051436;28;20040;-68
2022/11/09 02:25:37;;;;;;;28.85;20.13;;;11.80;99.90;;;;;;5050912;28;20063;-69
2022/11/09 02:28:42;;;;;;;28.98;18.90;;;14.10;99.90;;;;;;5050530;28;20044;-68
2022/11/09 02:31:51;;;;;;;25.95;18.98;;;11.20;99.90;;;;;;5051323;28;20047;-68
2022/11/09 02:34:56;;;;;;;27.60;18.00;;;10.10;99.90;;;;;;5050469;28;20044;-69
2022/11/09 02:38:02;;;;;;;28.48;18.58;;;;;;;;;;5050597;28;20048;-69
2022/11/09 02:41:06;;;;;;;31.35;19.38;;;11.90;99.90;;;;;;5051007;28;20405;-69
2022/11/09 02:44:11;;;;;;;30.55;19.33;;;11.90;99.90;;;;;;5050250;28;20504;-69
2022/11/09 02:47:16;;;;;;;29.15;18.27;;;12.50;99.90;;;;;;5050579;28;20043;-69
2022/11/09 02:50:22;;;;;;;28.05;19.70;;;;;;;;;;5049870;28;20432;-69
2022/11/09 02:53:26;;;;;;;30.02;20.08;;;;;;;;;;5052636;28;20052;-69
2022/11/09 02:56:31;;;;;;;26.77;19.33;;;;;;;;;;5054406;28;20052;-69
2022/11/09 02:59:36;;;;;;;32.85;18.42;;;;;;;;;;5053922;28;20115;-69
2022/11/09 03:02:42;;;;;;;28.65;17.55;;;9.40;99.90;;;;;;5054166;28;20052;-68
2022/11/09 03:05:46;;;;;;;27.02;18.02;;;;;;;;;;5054391;28;20051;-68
2022/11/09 03:08:51;;;;;;;30.05;18.42;;;11.80;99.90;;;;;;5054054;28;20036;-68
2022/11/09 03:11:56;;;;;;;26.70;17.58;;;11.70;99.90;;;;;;5054072;28;20195;-68
2022/11/09 03:15:04;;;;;;;24.73;16.80;;;11.80;99.90;;;;;;5053978;28;20044;-68
2022/11/09 03:18:08;;;;;;;26.67;17.38;;;11.90;99.90;;;;;;5053747;28;20044;-68
2022/11/09 03:21:12;;;;;;;22.98;17.48;;;11.70;99.90;;;;;;5053622;28;20060;-68
2022/11/09 03:24:16;;;;;;;27.85;17.95;;;;;;;;;;5054551;28;20044;-67
2022/11/09 03:27:21;;;;;;;26.25;17.90;;;;;;;;;;5053562;28;20051;-68
2022/11/09 03:30:26;;;;;;;28.08;17.90;;;;;;;;;;5053736;28;20056;-69
2022/11/09 03:33:31;;;;;;;30.40;18.30;;;;;;;;;;5054150;28;20048;-67
2022/11/09 03:36:36;;;;;;;23.10;16.10;;;;;;;;;;5053914;28;20044;-68
2022/11/09 03:39:40;;;;;;;23.35;15.70;;;;;;;;;;5053070;28;20056;-68
2022/11/09 03:42:44;;;;;;;23.85;15.65;;;12.60;99.90;;;;;;5053333;28;20048;-68
2022/11/09 03:45:49;;;;;;;24.85;16.42;;;;;;;;;;5052874;28;20052;-68
2022/11/09 03:48:53;;;;;;;22.90;16.45;;;;;;;;;;5053754;28;20044;-68
2022/11/09 03:51:57;;;;;;;22.15;15.85;;;;;;;;;;5052884;28;20052;-68
2022/11/09 03:55:01;;;;;;;30.50;17.42;;;;;;;;;;5053695;28;20044;-69
2022/11/09 03:58:06;;;;;;;26.00;16.95;;;11.30;99.90;;;;;;5053713;28;20044;-69
2022/11/09 04:01:11;;;;;;;28.45;16.98;;;;;;;;;;5054013;28;20036;-69
2022/11/09 04:04:15;;;;;;;27.85;16.02;;;;;;;;;;5052303;28;20071;-67
2022/11/09 04:07:19;;;;;;;21.58;16.60;;;;;;;;;;5053515;28;20080;-68
2022/11/09 04:10:25;;;;;;;25.55;16.65;;;11.20;99.90;;;;;;5053543;28;20385;-68
2022/11/09 04:13:29;;;;;;;22.98;15.90;;;;;;;;;;5053476;28;20040;-68
2022/11/09 04:16:33;;;;;;;24.00;15.82;;;;;;;;;;5053235;28;20044;-68
2022/11/09 04:19:37;;;;;;;25.55;16.98;;;13.00;99.90;;;;;;5052651;28;20050;-68
2022/11/09 04:22:41;;;;;;;27.13;15.38;;;11.40;99.90;;;;;;5053384;28;20044;-68
2022/11/09 04:25:45;;;;;;;27.35;16.88;;;;;;;;;;5053261;28;20048;-68
2022/11/09 04:28:55;;;;;;;22.75;16.05;;;;;;;;;;5053387;28;20040;-68
2022/11/09 04:31:59;;;;;;;32.85;19.92;;;10.60;99.90;;;;;;5052969;28;20052;-68
2022/11/09 04:35:03;;;;;;;28.38;19.42;;;11.70;99.90;;;;;;5052134;28;20067;-68
2022/11/09 04:38:11;;;;;;;27.63;16.20;;;11.90;99.90;;;;;;5052749;28;20044;-68
2022/11/09 04:41:15;;;;;;;26.50;15.90;;;;;;;;;;5052974;28;20048;-68
2022/11/09 04:44:20;;;;;;;21.42;15.20;;;;;;;;;;5052782;28;20044;-68
2022/11/09 04:47:24;;;;;;;20.75;14.88;;;;;;;;;;5053171;28;20048;-68
2022/11/09 04:50:29;;;;;;;26.05;16.05;;;11.10;99.90;;;;;;5052827;28;20060;-68
2022/11/09 04:53:34;;;;;;;20.27;14.20;;;10.80;99.90;;;;;;5052739;28;20040;-68
2022/11/09 04:56:38;;;;;;;24.20;14.75;;;;;;;;;;5052530;28;20044;-68
2022/11/09 04:59:42;;;;;;;18.88;14.07;;;;;;;;;;5051956;28;20048;-68
2022/11/09 05:02:46;;;;;;;25.52;14.98;;;;;;;;;;5052582;28;20043;-68
2022/11/09 05:05:51;;;;;;;24.98;13.90;;;;;;;;;;5051396;28;20404;-68
2022/11/09 05:08:55;;;;;;;21.17;13.75;;;10.80;99.90;;;;;;5052359;28;20040;-68
2022/11/09 05:11:59;;;;;;;22.35;14.90;;;;;;;;;;5052416;28;20044;-68
2022/11/09 05:15:04;;;;;;;25.30;15.30;;;10.30;99.90;;;;;;5052347;28;20040;-68
2022/11/09 05:18:09;;;;;;;24.98;14.93;;;11.00;99.90;;;;;;5052666;28;20162;-68
2022/11/09 05:21:13;;;;;;;23.63;14.93;;;;;;;;;;5052380;28;20044;-68
2022/11/09 05:24:17;;;;;;;23.88;14.82;;;;;;;;;;5052588;28;20076;-69
2022/11/09 05:27:22;;;;;;;22.50;14.10;;;;;;;;;;5052517;28;20055;-68
2022/11/09 05:30:26;;;;;;;20.27;12.90;;;;;;;;;;5051235;28;20039;-68
2022/11/09 05:33:30;;;;;;;21.10;13.95;;;;;;;;;;5052733;28;20060;-69
2022/11/09 05:36:34;;;;;;;20.88;13.32;;;;;;;;;;5052248;28;20044;-69
2022/11/09 05:39:38;;;;;;;21.67;13.57;;;;;;;;;;5051350;28;20048;-69
2022/11/09 05:42:43;;;;;;;23.02;13.43;;;;;;;;;;5052612;28;20040;-68
2022/11/09 05:45:47;;;;;;;20.92;13.10;;;;;;;;;;5052861;28;20052;-68
2022/11/09 05:48:52;;;;;;;23.90;13.98;;;;;;;;;;5052412;28;20420;-68
2022/11/09 05:51:56;;;;;;;20.10;13.95;;;;;;;;;;5052223;28;20048;-69
2022/11/09 05:55:02;;;;;;;21.92;13.25;;;;;;;;;;5052578;28;20053;-68
2022/11/09 05:58:06;;;;;;;21.20;13.75;;;;;;;;;;5052978;28;20071;-68
2022/11/09 06:01:12;;;;;;;27.60;14.52;;;;;;;;;;5052550;28;20412;-69
2022/11/09 06:04:16;;;;;;;24.05;13.25;;;;;;;;;;5052363;28;20397;-70
2022/11/09 06:07:21;;;;;;;25.50;13.57;;;;;;;;;;5053102;28;20047;-68
2022/11/09 06:10:25;;;;;;;22.13;14.63;;;;;;;;;;5051748;28;20104;-68
2022/11/09 06:13:29;;;;;;;22.35;14.65;;;10.80;99.90;;;;;;5052722;28;20055;-69
2022/11/09 06:16:35;;;;;;;28.52;15.88;;;10.10;99.90;;;;;;5052589;28;20040;-67
2022/11/09 06:19:40;;;;;;;30.95;17.00;;;;;;;;;;5052817;28;20500;-67
2022/11/09 06:22:44;;;;;;;28.10;17.38;;;;;;;;;;5051417;28;20428;-69
2022/11/09 06:25:49;;;;;;;30.45;15.75;;;;;;;;;;5053509;28;20055;-72
2022/11/09 06:28:54;;;;;;;32.15;18.98;;;;;;;;;;5052977;28;20488;-71
2022/11/09 06:31:58;;;;;;;27.23;16.95;;;14.80;99.90;;;;;;5051679;28;20396;-72
2022/11/09 06:35:02;;;;;;;27.58;17.60;;;;;;;;;;5052734;28;20381;-73
2022/11/09 06:38:11;;;;;;;45.75;18.83;;;11.70;99.90;;;;;;5051464;28;20052;-73
2022/11/09 06:41:16;;;;;;;26.77;17.40;;;11.80;99.90;;;;;;5054388;28;20048;-73
2022/11/09 06:44:20;;;;;;;24.63;15.82;;;11.90;99.90;;;;;;5051876;28;20056;-72
2022/11/09 06:47:24;;;;;;;25.55;15.80;;;;;;;;;;5054488;28;20068;-73
2022/11/09 06:50:32;;;;;;;24.33;16.17;;;12.20;99.90;;;;;;5055482;28;20048;-72
2022/11/09 06:53:37;;;;;;;33.22;17.52;;;12.60;99.90;;;;;;5054427;28;20504;-73
2022/11/09 06:56:41;;;;;;;24.85;15.27;;;12.70;99.90;;;;;;5056109;28;20048;-73
2022/11/09 06:59:46;;;;;;;34.65;18.08;;;12.80;99.90;;;;;;5051628;28;20044;-72
2022/11/09 07:02:50;;;;;;;31.60;16.65;;;13.10;99.90;;;;;;5054622;28;20044;-72
2022/11/09 07:05:55;;;;;;;30.33;17.35;;;13.40;99.90;;;;;;5055857;28;20060;-71
2022/11/09 07:08:59;;;;;;;26.77;15.88;;;13.50;99.90;;;;;;5066794;28;20043;-71
2022/11/09 07:12:04;;;;;;;29.58;15.10;;;13.70;99.90;;;;;;5067545;28;20047;-71
2022/11/09 07:15:10;;;;;;;29.15;13.95;;;14.00;99.90;;;;;;5066223;28;20044;-72
2022/11/09 07:18:14;;;;;;;19.63;12.98;;;14.10;99.90;;;;;;5062212;28;20044;-75
2022/11/09 07:21:18;;;;;;;27.83;13.10;;;14.40;99.80;;;;;;5059560;28;20048;-72
2022/11/09 07:24:23;;;;;;;18.73;9.80;;;14.60;99.40;;;;;;5060530;28;20048;-71
2022/11/09 07:27:27;;;;;;;18.27;10.63;;;14.90;98.60;;;;;;5058604;28;20412;-70
2022/11/09 07:30:31;;;;;;;16.20;10.63;;;15.00;98.80;;;;;;5052406;28;20032;-72
2022/11/09 07:33:35;;;;;;;16.38;10.00;;;15.20;98.60;;;;;;5052245;28;20048;-72
2022/11/09 07:36:39;;;;;;;21.27;11.60;;;15.30;98.30;;;;;;5053214;28;20039;-75
2022/11/09 07:39:43;;;;;;;15.18;9.80;;;15.50;98.20;;;;;;5055253;28;20044;-72
2022/11/09 07:42:49;;;;;;;21.50;12.50;;;15.70;98.10;;;;;;5055560;28;20052;-72
2022/11/09 07:45:53;;;;;;;17.55;10.88;;;16.00;97.80;;;;;;5058570;28;20056;-72
2022/11/09 07:48:57;;;;;;;15.15;10.43;;;16.20;97.60;;;;;;5056928;28;20040;-73
2022/11/09 07:52:01;;;;;;;15.80;10.80;;;16.40;97.20;;;;;;5058528;28;20531;-73
2022/11/09 07:55:05;;;;;;;24.00;12.93;;;16.60;97.00;;;;;;5057310;28;20151;-74
2022/11/09 07:58:14;;;;;;;16.98;11.38;;;16.80;96.50;;;;;;5056174;28;20048;-70
2022/11/09 08:01:20;;;;;;;16.90;10.88;;;16.90;96.90;;;;;;5054743;28;20048;-71
2022/11/09 08:04:24;;;;;;;18.73;12.48;;;17.00;96.60;;;;;;5054103;28;20072;-70
2022/11/09 08:07:28;;;;;;;30.63;16.58;;;17.20;96.40;;;;;;5054981;28;20047;-70
2022/11/09 08:10:35;;;;;;;27.85;15.85;;;17.30;95.80;;;;;;5055503;28;20044;-70
2022/11/09 08:13:39;;;;;;;20.17;14.13;;;17.30;95.80;;;;;;5056126;28;20056;-71
2022/11/09 08:16:44;;;;;;;23.08;15.98;;;17.40;96.00;;;;;;5054584;28;20036;-72
2022/11/09 08:19:48;;;;;;;24.30;13.60;;;17.50;95.80;;;;;;5054860;28;20055;-70
2022/11/09 08:22:52;;;;;;;19.52;13.80;;;17.50;96.10;;;;;;5055905;28;20044;-69
2022/11/09 08:25:56;;;;;;;23.35;16.48;;;17.70;95.80;;;;;;5054489;28;20068;-69
2022/11/09 08:29:03;;;;;;;23.48;14.93;;;17.80;95.50;;;;;;5054679;28;20063;-72
2022/11/09 08:32:06;;;;;;;25.55;15.80;;;17.80;95.50;;;;;;5054732;28;20043;-69
2022/11/09 08:35:16;;;;;;;25.90;15.63;;;18.00;95.40;;;;;;5054723;28;20618;-70
2022/11/09 08:38:20;;;;;;;24.70;16.40;;;18.10;95.40;;;;;;5053643;28;20040;-70
2022/11/09 08:41:24;;;;;;;27.65;15.50;;;18.20;95.30;;;;;;5055334;28;20049;-71
2022/11/09 08:44:28;;;;;;;27.55;16.55;;;18.30;95.10;;;;;;5056054;28;20119;-72
2022/11/09 08:47:33;;;;;;;23.17;14.77;;;18.40;95.00;;;;;;5054839;28;20063;-72
2022/11/09 08:50:45;;;;;;;22.25;13.90;;;18.50;94.90;;;;;;5053366;28;20048;-72
2022/11/09 08:53:50;;;;;;;21.42;13.02;;;18.60;94.30;;;;;;5053820;28;20123;-70
2022/11/09 08:56:56;;;;;;;19.45;12.35;;;18.70;94.50;;;;;;5053695;28;20036;-71
2022/11/09 09:00:01;;;;;;;20.27;11.25;;;18.80;94.20;;;;;;5054392;28;20527;-71
2022/11/09 09:03:05;;;;;;;14.40;9.27;;;18.90;93.90;;;;;;5055434;28;20194;-70
2022/11/09 09:06:09;;;;;;;14.50;9.73;;;18.90;93.90;;;;;;5052943;28;20048;-69
2022/11/09 09:09:13;;;;;;;14.43;9.43;;;19.00;94.10;;;;;;5056937;28;20111;-71
2022/11/09 09:12:18;;;;;;;19.88;10.75;;;19.20;93.60;;;;;;5054400;28;20051;-71
2022/11/09 09:15:22;;;;;;;19.13;9.85;;;19.30;93.70;;;;;;5055279;28;20047;-71
2022/11/09 09:18:26;;;;;;;18.77;10.00;;;19.50;93.50;;;;;;5055165;28;20043;-72
2022/11/09 09:21:30;;;;;;;21.95;10.25;;;19.70;93.20;;;;;;5056052;28;20048;-73
2022/11/09 09:24:34;;;;;;;24.27;10.82;;;19.90;92.80;;;;;;5053558;28;20514;-72
2022/11/09 09:27:38;;;;;;;15.57;11.00;;;20.00;92.40;;;;;;5053574;28;20060;-72
2022/11/09 09:30:42;;;;;;;13.70;9.10;;;20.10;92.30;;;;;;5054458;28;20484;-70
2022/11/09 09:33:46;;;;;;;18.33;10.43;;;20.20;92.40;;;;;;5054282;28;20048;-71
2022/11/09 09:36:54;;;;;;;18.50;11.38;;;20.30;92.30;;;;;;5053149;28;20060;-74
2022/11/09 09:39:58;;;;;;;12.93;9.32;;;20.30;92.30;;;;;;5053860;28;20055;-73
2022/11/09 09:43:02;;;;;;;16.42;9.90;;;20.40;92.60;;;;;;5051680;28;20424;-71
2022/11/09 09:46:14;;;;;;;14.20;8.75;;;20.50;92.50;;;;;;5052589;28;20420;-72
2022/11/09 09:49:25;;;;;;;17.20;8.90;;;20.60;92.10;;;;;;5053202;28;20052;-72
2022/11/09 09:52:47;;;;;;;11.95;7.93;;;20.40;92.50;;;;;;5054757;28;20048;-73
2022/11/09 09:56:15;;;;;;;12.38;8.43;;;20.40;92.40;;;;;;5055501;28;20044;-72
2022/11/09 09:59:43;;;;;;;8.25;5.68;;;20.50;92.70;;;;;;5053921;28;20048;-73
2022/11/09 10:02:48;;;;;;;11.82;7.22;;;20.80;92.90;;;;;;5052952;28;20255;-73
2022/11/09 10:06:10;;;;;;;8.25;6.38;;;21.00;92.50;;;;;;5053492;28;20059;-73
2022/11/09 10:09:44;;;;;;;15.40;6.90;;;21.20;92.10;;;;;;5052428;28;20421;-73
2022/11/09 10:13:06;;;;;;;8.77;5.28;;;21.40;91.50;;;;;;5055608;28;20052;-72
2022/11/09 10:16:40;;;;;;;10.57;5.85;;;21.50;91.50;;;;;;5052779;28;20044;-72
2022/11/09 10:19:59;;;;;;;11.48;5.78;;;21.60;91.50;;;;;;5052949;28;20040;-71
2022/11/09 10:23:33;;;;;;;11.07;5.78;;;21.60;91.20;;;;;;5052944;28;20064;-73
2022/11/09 10:26:49;;;;;;;9.10;6.50;;;21.60;91.10;;;;;;5052446;28;20508;-74
2022/11/09 10:29:54;;;;;;;10.30;5.57;;;21.70;90.90;;;;;;5051882;28;20381;-73
2022/11/09 10:33:09;;;;;;;9.32;5.00;;;21.80;91.00;;;;;;5051431;28;20056;-73
2022/11/09 10:36:27;;;;;;;10.18;5.35;;;21.70;90.80;;;;;;5053727;28;20421;-72
2022/11/09 10:39:41;;;;;;;11.15;6.18;;;21.70;91.10;;;;;;5052818;28;20060;-72
2022/11/09 10:43:14;;;;;;;6.57;4.72;;;21.80;91.00;;;;;;5052183;28;20048;-73
2022/11/09 10:47:04;;;;;;;10.75;5.65;;;21.80;91.00;;;;;;5051367;28;20052;-71
2022/11/09 10:50:32;;;;;;;12.60;6.13;;;21.70;90.90;;;;;;5051461;28;20507;-73
2022/11/09 10:54:25;;;;;;;12.05;5.60;;;21.60;90.70;;;;;;5050851;28;20511;-69
2022/11/09 10:57:59;;;;;;;9.32;5.13;;;21.60;91.00;;;;;;5049943;28;20055;-69
2022/11/09 11:01:24;;;;;;;8.02;6.03;;;21.50;91.20;;;;;;5050349;28;20044;-73
2022/11/09 11:04:47;;;;;;;10.13;5.68;;;21.60;91.00;;;;;;5051706;28;20056;-71
2022/11/09 11:08:23;;;;;;;10.57;5.47;;;21.50;91.40;;;;;;5050777;28;20044;-69
2022/11/09 11:11:46;;;;;;;7.53;4.78;;;21.50;91.60;;;;;;5050907;28;20047;-72
2022/11/09 11:15:23;;;;;;;12.05;5.47;;;21.30;91.80;;;;;;5054279;28;20527;-72
2022/11/09 11:18:46;;;;;;;10.13;5.30;;;21.10;92.00;;;;;;5055299;28;20040;-73
2022/11/09 11:22:13;;;;;;;12.73;6.38;;;20.90;92.20;;;;;;5055245;28;20036;-70
2022/11/09 11:25:55;;;;;;;11.75;7.10;;;20.80;92.30;;;;;;5054490;28;20043;-69
2022/11/09 11:29:18;;;;;;;9.73;6.10;;;20.60;92.40;;;;;;5054864;28;20048;-70
2022/11/09 11:32:43;;;;;;;8.85;5.93;;;20.50;92.60;;;;;;5055158;28;20033;-69
2022/11/09 11:36:26;;;;;;;6.60;5.10;;;20.40;92.70;;;;;;5054094;28;20044;-70
2022/11/09 11:40:03;;;;;;;9.88;6.22;;;20.40;92.90;;;;;;5054903;28;20056;-71
2022/11/09 11:43:35;;;;;;;9.63;6.32;;;20.40;92.80;;;;;;5054657;28;20040;-71
2022/11/09 11:47:28;;;;;;;11.32;6.85;;;20.30;92.80;;;;;;5054608;28;20052;-71
2022/11/09 11:51:03;;;;;;;9.50;4.90;;;20.30;92.90;;;;;;5053972;28;20408;-71
2022/11/09 11:54:49;;;;;;;8.95;4.68;;;20.30;92.90;;;;;;5052969;28;20036;-72
2022/11/09 11:58:26;;;;;;;10.82;5.95;;;20.30;93.00;;;;;;5053185;28;20507;-72
2022/11/09 12:02:14;;;;;;;8.05;5.30;;;20.30;93.00;;;;;;5053478;28;20040;-71
2022/11/09 12:06:00;;;;;;;7.32;3.75;;;20.40;92.90;;;;;;5054296;28;20052;-72
2022/11/09 12:09:26;;;;;;;4.38;2.72;;;20.50;92.80;;;;;;5053981;28;20044;-70
2022/11/09 12:12:59;;;;;;;10.57;3.85;;;20.50;92.70;;;;;;5053675;28;20044;-71
2022/11/09 12:16:44;;;;;;;5.43;3.10;;;20.50;92.40;;;;;;5053607;28;20052;-72
2022/11/09 12:20:33;;;;;;;6.90;2.75;;;20.50;92.40;;;;;;5051923;28;20055;-72
2022/11/09 12:24:32;;;;;;;5.50;2.50;;;20.50;92.50;;;;;;5054030;28;20063;-72
2022/11/09 12:28:29;;;;;;;6.70;2.65;;;20.40;92.70;;;;;;5052106;28;20409;-71
2022/11/09 12:32:21;;;;;;;3.15;2.03;;;20.50;92.70;;;;;;5053491;28;20036;-71
2022/11/09 12:35:56;;;;;;;4.10;2.13;;;20.40;92.70;;;;;;5053682;28;20499;-70
2022/11/09 12:39:31;;;;;;;5.97;2.80;;;20.50;92.60;;;;;;5054597;28;20068;-71
2022/11/09 12:43:16;;;;;;;8.80;2.40;;;20.50;92.40;;;;;;5045200;28;20048;-70
2022/11/09 12:46:45;;;;;;;3.10;1.90;;;20.50;91.90;;;;;;5055791;28;20606;-71
2022/11/09 12:50:20;;;;;;;4.03;2.00;;;20.50;91.70;;;;;;5054983;28;20043;-70
2022/11/09 12:53:43;;;;;;;2.58;1.80;;;20.50;91.70;;;;;;5056715;28;20072;-70
2022/11/09 12:57:10;;;;;;;3.85;1.65;;;20.50;91.40;;;;;;5057552;28;20400;-71
2022/11/09 13:00:33;;;;;;;2.90;1.98;;;20.40;91.00;;;;;;5056411;28;20043;-69
2022/11/09 13:03:59;;;;;;;4.50;1.77;;;20.50;90.70;;;;;;5055544;28;20507;-70
2022/11/09 13:07:36;;;;;;;4.65;2.17;;;20.40;90.80;;;;;;5056516;28;20535;-70
2022/11/09 13:11:08;;;;;;;5.07;1.92;;;20.40;90.80;;;;;;5053098;28;20516;-69
2022/11/09 13:14:37;;;;;;;6.07;2.05;;;20.40;90.90;;;;;;5055004;28;20047;-71
2022/11/09 13:18:23;;;;;;;6.25;2.10;;;20.40;91.00;;;;;;5054167;28;20040;-69
2022/11/09 13:21:45;;;;;;;2.58;1.40;;;20.30;90.70;;;;;;5052694;28;20048;-67
2022/11/09 13:25:47;;;;;;;4.40;1.63;;;20.30;90.60;;;;;;5052852;28;20058;-68
2022/11/09 13:29:23;;;;;;;2.10;1.23;;;20.30;90.40;;;;;;5052118;28;20401;-69
2022/11/09 13:33:05;;;;;;;2.85;1.70;;;20.30;90.50;;;;;;5053791;28;20044;-72
2022/11/09 13:36:28;;;;;;;3.15;1.60;;;20.30;90.00;;;;;;5055500;28;20056;-73
2022/11/09 13:39:51;;;;;;;3.78;1.25;;;20.20;89.90;;;;;;5054502;28;20048;-70
2022/11/09 13:43:30;;;;;;;5.00;2.20;;;20.20;89.40;;;;;;5053190;28;20063;-71
2022/11/09 13:46:53;;;;;;;5.00;1.85;;;20.10;89.30;;;;;;5054392;28;20072;-69
2022/11/09 13:50:19;;;;;;;3.85;1.63;;;20.10;89.40;;;;;;5053247;28;20044;-73
2022/11/09 13:53:54;;;;;;;2.63;1.70;;;20.10;89.40;;;;;;5052457;28;20044;-69
2022/11/09 13:57:17;;;;;;;1.88;1.48;;;20.10;89.60;;;;;;5051872;28;20040;-70
2022/11/09 14:00:45;;;;;;;5.07;2.50;;;20.10;90.30;;;;;;5054551;28;20044;-71
2022/11/09 14:04:19;;;;;;;2.53;1.80;;;20.10;90.40;;;;;;5053751;28;20043;-72
2022/11/09 14:07:42;;;;;;;2.55;1.80;;;20.10;90.60;;;;;;5053705;28;20052;-72
2022/11/09 14:11:23;;;;;;;7.38;2.20;;;20.10;90.50;;;;;;5052402;28;20412;-72
2022/11/09 14:15:07;;;;;;;2.42;1.70;;;20.10;90.60;;;;;;5052407;28;20044;-73
2022/11/09 14:18:48;;;;;;;5.55;1.90;;;20.10;90.80;;;;;;5053782;28;20040;-73
2022/11/09 14:22:17;;;;;;;4.85;2.60;;;20.00;91.00;;;;;;5053909;28;20044;-71
2022/11/09 14:25:39;;;;;;;5.72;2.30;;;20.00;91.20;;;;;;5052581;28;20251;-72
2022/11/09 14:29:22;;;;;;;4.38;2.75;;;19.90;91.30;;;;;;5051695;28;20047;-72
2022/11/09 14:32:52;;;;;;;5.50;3.55;;;19.90;91.60;;;;;;5052181;28;20047;-72
2022/11/09 14:36:35;;;;;;;5.00;3.60;;;19.90;92.00;;;;;;5051731;28;20059;-72
2022/11/09 14:39:58;;;;;;;5.43;3.00;;;19.80;92.10;;;;;;5052674;28;20043;-72
2022/11/09 14:43:29;;;;;;;7.45;2.90;;;19.80;92.30;;;;;;5051437;28;20048;-72
2022/11/09 14:46:53;;;;;;;5.68;2.70;;;19.80;92.40;;;;;;5052789;28;20048;-73
2022/11/09 14:50:36;;;;;;;7.88;2.30;;;19.70;92.40;;;;;;5057551;28;20048;-73
2022/11/09 14:54:00;;;;;;;5.40;2.83;;;19.70;92.50;;;;;;5058363;28;20044;-72
2022/11/09 14:57:24;;;;;;;6.50;3.92;;;19.70;92.60;;;;;;5048777;28;20504;-71
2022/11/09 15:01:08;;;;;;;7.35;3.13;;;19.60;92.70;;;;;;5054863;28;20503;-68
2022/11/09 15:04:50;;;;;;;6.20;2.90;;;19.60;92.60;;;;;;5055346;28;20560;-71
2022/11/09 15:08:18;;;;;;;5.82;2.20;;;19.50;92.70;;;;;;5055374;28;20052;-72
2022/11/09 15:11:41;;;;;;;7.32;2.95;;;19.60;92.80;;;;;;5055358;28;20040;-71
2022/11/09 15:15:05;;;;;;;7.82;3.03;;;19.60;92.80;;;;;;5055099;28;20052;-72
2022/11/09 15:18:31;;;;;;;6.45;2.75;;;19.50;92.90;;;;;;5055445;28;20060;-69
2022/11/09 15:21:56;;;;;;;3.85;2.58;;;19.50;93.00;;;;;;5054873;28;20044;-71
2022/11/09 15:25:27;;;;;;;7.50;3.17;;;19.40;93.40;;;;;;5055857;28;20056;-73
2022/11/09 15:28:51;;;;;;;8.40;3.60;;;19.40;93.30;;;;;;5056510;28;20400;-70
2022/11/09 15:32:17;;;;;;;8.57;4.32;;;19.40;93.50;;;;;;5054579;28;20051;-69
2022/11/09 15:35:48;;;;;;;7.50;4.35;;;19.30;93.80;;;;;;5054722;28;20484;-68
2022/11/09 15:39:14;;;;;;;11.10;3.78;;;19.30;94.00;;;;;;5054924;28;20040;-71
2022/11/09 15:42:37;;;;;;;19.75;4.55;;;19.20;94.20;;;;;;5056224;28;20508;-73
2022/11/09 15:46:00;;;;;;;11.75;5.45;;;19.20;94.30;;;;;;5053974;28;20060;-70
2022/11/09 15:49:26;;;;;;;16.50;5.65;;;19.10;94.50;;;;;;5054469;28;20056;-71
2022/11/09 15:52:49;;;;;;;14.93;5.13;;;19.10;94.60;;;;;;5056096;28;20060;-71
2022/11/09 15:56:23;;;;;;;16.20;4.80;;;19.10;94.90;;;;;;5056326;28;20131;-73
2022/11/09 15:59:47;;;;;;;17.15;7.53;;;19.00;95.10;;;;;;5056335;28;20048;-73
2022/11/09 16:03:11;;;;;;;18.83;6.70;;;18.90;95.20;;;;;;5056316;28;20048;-74
2022/11/09 16:06:33;;;;;;;19.10;7.25;;;18.90;95.40;;;;;;5054969;28;20052;-73
2022/11/09 16:09:56;;;;;;;12.68;5.88;;;18.80;95.60;;;;;;5055647;28;20048;-73
2022/11/09 16:13:18;;;;;;;25.98;9.65;;;18.80;95.70;;;;;;5054595;28;20052;-73
2022/11/09 16:16:41;;;;;;;16.63;6.55;;;18.70;95.80;;;;;;5053734;28;20064;-70
2022/11/09 16:20:05;;;;;;;33.67;8.20;;;18.60;96.00;;;;;;5055820;28;20067;-72
2022/11/09 16:23:28;;;;;;;23.10;8.70;;;18.60;96.10;;;;;;5054743;28;20036;-72
2022/11/09 16:26:52;;;;;;;29.90;8.48;;;18.50;96.20;;;;;;5054971;28;20056;-71
2022/11/09 16:30:15;;;;;;;19.45;7.43;;;18.50;96.30;;;;;;5055821;28;20047;-72
2022/11/09 16:33:39;;;;;;;16.42;7.50;;;18.40;96.40;;;;;;5053235;28;20048;-71
2022/11/09 16:37:02;;;;;;;19.33;8.40;;;18.40;96.50;;;;;;5055419;28;20065;-71
2022/11/09 16:40:26;;;;;;;28.83;10.32;;;18.30;96.50;;;;;;5056035;28;20448;-71
2022/11/09 16:43:52;;;;;;;27.55;9.63;;;18.30;96.70;;;;;;5055737;28;20040;-70
2022/11/09 16:47:17;;;;;;;31.05;10.82;;;18.30;96.80;;;;;;5045879;28;20499;-69
2022/11/09 16:50:40;;;;;;;22.65;11.40;;;18.30;96.90;;;;;;5055020;28;20048;-69
2022/11/09 16:54:02;;;;;;;24.00;10.20;;;18.30;97.00;;;;;;5055214;28;20055;-71
2022/11/09 16:57:25;;;;;;;40.17;10.63;;;18.20;97.10;;;;;;5054963;28;20048;-69
2022/11/09 17:00:50;;;;;;;28.23;8.93;;;18.20;97.20;;;;;;5054715;28;20040;-72
2022/11/09 17:04:13;;;;;;;40.42;9.18;;;18.20;97.30;;;;;;5054840;28;20040;-69